createdAt,value
2017-04-17T08:55:39.433Z,7.31
2017-04-17T08:56:19.885Z,7.4
2017-04-17T08:57:00.317Z,7.32
2017-04-17T08:57:40.790Z,7.33
2017-04-17T08:58:21.205Z,7.4
2017-04-17T08:59:01.643Z,7.4
2017-04-17T08:59:42.087Z,7.44
2017-04-17T09:00:22.541Z,7.47
2017-04-17T09:02:35.456Z,7.47
2017-04-17T09:03:15.900Z,7.4
2017-04-17T09:03:56.320Z,7.4
2017-04-17T09:04:37.450Z,7.44
2017-04-17T09:05:17.874Z,7.48
2017-04-17T09:05:58.280Z,7.48
2017-04-17T09:06:38.712Z,7.5
2017-04-17T09:07:19.134Z,7.59
2017-04-17T09:07:59.559Z,7.59
2017-04-17T09:08:40.008Z,7.58
2017-04-17T09:09:20.452Z,7.62
2017-04-17T09:10:00.900Z,7.69
2017-04-17T09:10:41.340Z,7.67
2017-04-17T09:11:21.775Z,7.75
2017-04-17T09:12:02.196Z,7.74
2017-04-17T09:12:43.346Z,7.75
2017-04-17T09:13:23.811Z,7.74
2017-04-17T09:14:04.213Z,7.7
2017-04-17T09:14:44.619Z,7.67
2017-04-17T09:15:25.031Z,7.77
2017-04-17T09:16:05.456Z,7.7
2017-04-17T09:16:45.899Z,7.7
2017-04-17T09:17:26.343Z,7.64
2017-04-17T09:18:06.792Z,7.75
2017-04-17T09:18:47.246Z,7.75
2017-04-17T09:19:27.741Z,7.72
2017-04-17T09:20:08.182Z,7.74
2017-04-17T09:22:21.173Z,7.8
2017-04-17T09:23:01.603Z,7.75
2017-04-17T09:23:42.055Z,7.7
2017-04-17T09:24:22.481Z,7.74
2017-04-17T09:25:02.948Z,7.74
2017-04-17T09:25:43.331Z,7.78
2017-04-17T09:26:23.721Z,7.85
2017-04-17T09:27:04.154Z,7.9
2017-04-17T09:27:44.585Z,7.87
2017-04-17T09:28:25.019Z,7.96
2017-04-17T09:29:05.465Z,7.96
2017-04-17T09:29:46.532Z,7.99
2017-04-17T09:30:26.965Z,8.09
2017-04-17T09:31:07.393Z,8.08
2017-04-17T09:32:55.938Z,8.09
2017-04-17T09:33:36.382Z,8.13
2017-04-17T09:34:16.819Z,8.16
2017-04-17T09:34:57.264Z,8.13
2017-04-17T09:35:37.829Z,8.18
2017-04-17T09:36:18.201Z,8.17
2017-04-17T09:36:58.653Z,8.38
2017-04-17T09:37:39.049Z,8.35
2017-04-17T09:38:19.480Z,8.34
2017-04-17T09:38:59.891Z,8.49
2017-04-17T09:39:40.348Z,8.57
2017-04-17T09:40:20.824Z,8.56
2017-04-17T09:41:01.222Z,8.61
2017-04-17T09:41:41.654Z,8.68
2017-04-17T09:42:22.079Z,8.69
2017-04-17T09:43:02.511Z,8.72
2017-04-17T09:45:00.323Z,8.77
2017-04-17T09:45:40.747Z,8.75
2017-04-17T09:46:21.176Z,8.86
2017-04-17T09:47:01.608Z,8.86
2017-04-17T09:47:42.071Z,8.92
2017-04-17T09:48:22.462Z,9.03
2017-04-17T09:49:02.880Z,8.96
2017-04-17T09:49:43.313Z,9.03
2017-04-17T09:50:23.719Z,9.15
2017-04-17T09:51:04.862Z,9.15
2017-04-17T09:51:45.272Z,9.05
2017-04-17T09:52:25.753Z,9.05
2017-04-17T09:53:06.141Z,9.13
2017-04-17T09:53:46.573Z,9.08
2017-04-17T09:54:27.023Z,9.08
2017-04-17T09:55:07.487Z,9.15
2017-04-17T09:55:47.927Z,9.15
2017-04-17T09:56:28.336Z,9.02
2017-04-17T09:57:08.750Z,9.02
2017-04-17T09:57:49.218Z,9.02
2017-04-17T09:58:29.627Z,8.97
2017-04-17T09:59:10.065Z,8.99
2017-04-17T09:59:50.508Z,8.89
2017-04-17T10:00:30.949Z,8.93
2017-04-17T10:02:18.895Z,8.92
2017-04-17T10:02:59.315Z,8.99
2017-04-17T10:03:39.764Z,8.96
2017-04-17T10:04:20.190Z,8.96
2017-04-17T10:05:00.630Z,9
2017-04-17T10:05:41.044Z,8.96
2017-04-17T10:06:21.454Z,9.03
2017-04-17T10:07:01.890Z,8.96
2017-04-17T10:07:42.325Z,8.99
2017-04-17T10:09:20.045Z,9
2017-04-17T10:10:00.484Z,8.96
2017-04-17T10:10:40.931Z,8.92
2017-04-17T10:11:21.374Z,9.02
2017-04-17T10:13:34.176Z,8.96
2017-04-17T10:14:14.605Z,8.82
2017-04-17T10:14:55.045Z,8.77
2017-04-17T10:15:35.497Z,8.71
2017-04-17T10:16:15.930Z,8.81
2017-04-17T10:16:56.363Z,8.74
2017-04-17T10:17:36.790Z,8.66
2017-04-17T10:18:17.223Z,8.56
2017-04-17T10:18:57.696Z,8.49
2017-04-17T10:19:38.077Z,8.46
2017-04-17T10:20:18.511Z,8.44
2017-04-17T10:20:58.956Z,8.34
2017-04-17T10:21:39.431Z,8.31
2017-04-17T10:22:19.845Z,8.2
2017-04-17T19:08:58.037Z,6.95
2017-04-17T19:09:38.472Z,6.89
2017-04-17T19:10:18.903Z,6.92
2017-04-17T19:10:59.395Z,6.92
2017-04-17T19:11:39.803Z,6.87
2017-04-17T19:12:20.226Z,6.9
2017-04-17T19:13:00.635Z,6.89
2017-04-17T19:13:41.026Z,6.87
2017-04-17T19:14:21.478Z,6.89
2017-04-17T19:15:02.643Z,6.83
2017-04-17T19:15:43.702Z,6.9
2017-04-17T19:16:24.559Z,6.86
2017-04-17T19:17:04.884Z,6.92
2017-04-17T19:17:45.819Z,6.82
2017-04-17T19:18:27.082Z,6.89
2017-04-17T19:19:08.050Z,6.82
2017-04-17T19:19:48.521Z,6.83
2017-04-17T19:20:29.115Z,6.87
2017-04-17T19:21:09.489Z,6.85
2017-04-17T19:21:50.136Z,6.9
2017-04-17T19:22:30.611Z,6.82
2017-04-17T19:23:10.996Z,6.85
2017-04-17T19:23:52.017Z,6.85
2017-04-17T19:24:33.407Z,6.8
2017-04-17T19:25:13.878Z,6.85
2017-04-17T19:25:54.382Z,6.82
2017-04-17T19:26:34.823Z,6.71
2017-04-17T19:27:15.381Z,6.72
2017-04-17T19:27:55.728Z,6.74
2017-04-17T19:28:36.183Z,6.7
2017-04-17T19:29:17.557Z,6.72
2017-04-17T19:29:57.999Z,6.62
2017-04-17T19:30:39.258Z,6.65
2017-04-17T19:31:20.524Z,6.6
2017-04-17T19:32:01.600Z,6.62
2017-04-17T19:32:42.994Z,6.64
2017-04-17T19:33:23.387Z,6.59
2017-04-17T19:34:03.796Z,6.54
2017-04-17T19:34:44.212Z,6.49
2017-04-17T19:35:24.676Z,6.52
2017-04-17T19:36:05.098Z,6.49
2017-04-17T19:36:45.573Z,6.43
2017-04-17T19:38:33.653Z,6.39
2017-04-17T19:39:14.977Z,6.31
2017-04-17T19:39:56.286Z,6.25
2017-04-17T19:40:37.680Z,6.26
2017-04-17T19:41:18.133Z,6.31
2017-04-17T19:42:01.240Z,6.29
2017-04-17T19:42:43.335Z,6.19
2017-04-17T19:43:27.395Z,6.2
2017-04-17T19:44:09.421Z,6.19
2017-04-17T19:44:53.751Z,6.19
2017-04-17T19:45:37.503Z,6.16
2017-04-17T19:46:19.779Z,6.17
2017-04-17T19:47:00.291Z,6.12
2017-04-17T19:47:43.591Z,6.12
2017-04-17T19:48:24.949Z,6.02
2017-04-17T19:49:07.170Z,6.05
2017-04-17T19:49:49.360Z,6.06
2017-04-17T19:50:31.772Z,5.98
2017-04-17T19:51:14.013Z,5.91
2017-04-17T19:51:54.417Z,5.91
2017-04-17T19:53:42.372Z,5.9
2017-04-17T19:54:22.799Z,5.73
2017-04-17T19:55:03.290Z,5.77
2017-04-17T19:55:44.390Z,5.8
2017-04-17T19:56:25.708Z,5.73
2017-04-17T19:57:06.141Z,5.76
2017-04-17T19:57:46.549Z,5.7
2017-04-17T19:58:27.009Z,5.65
2017-04-17T20:00:25.094Z,5.54
2017-04-17T20:01:05.525Z,5.43
2017-04-17T20:01:46.650Z,5.43
2017-04-17T20:02:27.051Z,5.41
2017-04-17T20:03:07.467Z,5.33
2017-04-17T20:03:47.905Z,5.28
2017-04-17T20:04:28.297Z,5.22
2017-04-17T20:05:09.368Z,5.26
2017-04-17T20:05:49.774Z,5.25
2017-04-17T20:07:37.521Z,5.22
2017-04-17T20:08:17.938Z,5.16
2017-04-17T20:10:10.685Z,5.13
2017-04-17T20:10:51.113Z,5.19
2017-04-17T20:11:31.565Z,5.07
2017-04-17T20:12:12.895Z,5.07
2017-04-17T20:12:53.305Z,5.04
2017-04-17T20:13:36.316Z,5.08
